Latest Weather Observations for Smithton

IDT60801

Issued at 11:41 pm EST Tuesday 23 July 2019 (issued every 10 minutes, with the page automatically refreshed every 10 minutes)

About weather observations | Map of weather stations | Latest weather observations for TAS | Other Formats
Station Details ID: 091292 Name: SMITHTON AERODROME Lat: -40.83 Lon: 145.08 Height: 7.5 m
Data from the previous 72 hours. | See also: Recent months at Smithton
Date/Time
EST
Temp
°C
App
Temp
°C
Dew
Point
°C
Rel
Hum
%
Delta-T
°C
Wind Press
QNH
hPa
Press
MSL
hPa
Rain since
9am
mm
Dir  Spd
km/h
Gust
km/h
Spd
kts
Gust
kts
23/11:30pm 5.5 0.9 3.7 88 0.8 WSW 17 20 9 11 1009.0 1009.0 9.6
23/11:00pm 5.8 0.6 3.8 87 0.8 W 20 24 11 13 1008.3 1008.3 9.6
23/10:30pm 5.3 1.1 4.0 91 0.5 WSW 15 19 8 10 1007.9 1007.9 9.6
23/10:00pm 6.0 2.0 4.8 92 0.5 WSW 15 20 8 11 1007.5 1007.5 9.6
23/09:30pm 5.8 1.4 4.9 94 0.4 WSW 17 20 9 11 1006.6 1006.6 9.6
23/09:00pm 6.2 1.0 5.3 94 0.4 SW 22 32 12 17 1006.3 1006.3 9.6
23/08:30pm 6.2 -0.7 4.7 90 0.6 WSW 30 41 16 22 1005.5 1005.5 9.6
23/08:17pm 6.4 1.2 5.4 93 0.4 WSW 22 35 12 19 1005.2 1005.2 9.6
23/08:00pm 6.6 3.6 5.9 95 0.3 WSW 11 13 6 7 1005.0 1005.0 8.2
23/07:30pm 6.4 3.2 5.0 91 0.6 W 11 15 6 8 1004.4 1004.4 8.0
23/07:03pm 6.7 0.3 5.2 90 0.7 W 28 50 15 27 1004.9 1004.9 6.0
23/07:00pm 7.0 1.4 5.5 90 0.7 W 24 50 13 27 1004.8 1004.8 5.4
23/06:30pm 8.0 2.5 6.0 87 0.9 NNW 24 30 13 16 1004.1 1004.1 3.0
23/06:00pm 7.8 4.5 6.3 90 0.7 NW 13 19 7 10 1004.0 1004.0 2.8
23/05:30pm 7.8 3.3 6.1 89 0.8 NW 19 22 10 12 1003.8 1003.8 2.8
23/05:00pm 8.4 2.4 5.3 81 1.4 NW 26 50 14 27 1003.8 1003.8 2.0
23/04:59pm 8.5 2.9 5.3 80 1.4 NW 24 50 13 27 1003.8 1003.8 2.0
23/04:30pm 9.5 5.7 5.7 77 1.7 NW 15 19 8 10 1003.4 1003.4 2.0
23/04:00pm 9.4 5.7 6.1 80 1.5 WNW 15 20 8 11 1003.2 1003.2 2.0
23/03:30pm 9.8 5.3 6.3 79 1.6 WNW 19 26 10 14 1003.1 1003.1 2.0
23/03:00pm 9.7 5.6 6.2 79 1.6 NW 17 20 9 11 1003.2 1003.2 2.0
23/02:30pm 9.6 4.9 6.0 78 1.7 WNW 20 28 11 15 1003.2 1003.2 2.0
23/02:00pm 9.7 4.3 6.4 80 1.5 WNW 24 37 13 20 1003.6 1003.6 2.0
23/01:30pm 9.6 3.5 6.7 82 1.4 WNW 28 39 15 21 1003.5 1003.5 1.8
23/01:05pm 10.3 3.5 7.0 80 1.6 W 32 50 17 27 1003.6 1003.6 1.6
23/01:00pm 10.2 2.7 6.5 78 1.7 W 35 50 19 27 1003.7 1003.7 1.6
23/12:43pm 9.9 3.7 6.1 77 1.8 WNW 28 48 15 26 1003.3 1003.3 1.6
23/12:30pm 9.9 4.1 6.3 78 1.7 WNW 26 37 14 20 1003.4 1003.4 1.6
23/12:07pm 10.5 4.1 7.0 79 1.7 WNW 30 50 16 27 1003.7 1003.7 1.6
23/12:00pm 11.2 5.7 7.7 79 1.7 WNW 26 35 14 19 1003.5 1003.5 1.6
23/11:50am 9.9 3.5 6.8 81 1.5 WNW 30 48 16 26 1003.5 1003.5 1.6
23/11:40am 9.7 3.5 6.1 78 1.7 WNW 28 48 15 26 1003.4 1003.4 1.6
23/11:30am 10.0 5.7 6.9 81 1.5 NW 19 28 10 15 1003.4 1003.4 1.4
23/11:00am 8.7 4.8 7.3 91 0.7 NW 17 22 9 12 1003.5 1003.5 1.4
23/10:30am 8.9 4.1 7.5 91 0.7 NW 22 32 12 17 1003.5 1003.5 0.2
23/10:00am 9.3 3.4 7.7 90 0.8 NW 28 39 15 21 1003.1 1003.1 0.0
23/09:30am 9.1 4.4 7.7 91 0.7 NNW 22 28 12 15 1002.8 1002.8 0.0
23/09:00am 7.4 4.5 6.5 94 0.4 NW 11 17 6 9 1002.9 1002.9 13.8
23/08:30am 7.4 2.0 6.3 93 0.5 NNW 24 39 13 21 1003.2 1003.2 13.2
23/08:00am 7.4 3.4 6.5 94 0.4 WNW 17 20 9 11 1003.0 1003.0 12.0
23/07:30am 7.6 0.1 6.2 91 0.6 WNW 35 50 19 27 1003.2 1003.2 9.8
23/07:20am 8.3 0.7 5.8 84 1.1 NW 35 72 19 39 1002.8 1002.8 9.2
23/07:19am 8.7 1.6 6.3 85 1.1 NW 33 72 18 39 1002.8 1002.8 9.0
23/07:17am 9.9 3.9 7.2 83 1.3 NNW 28 56 15 30 1002.2 1002.2 8.6
23/07:00am 9.8 4.9 7.1 83 1.3 NNW 22 33 12 18 1002.0 1002.0 8.6
23/06:30am 9.0 6.7 7.3 89 0.8 N 9 17 5 9 1001.6 1001.6 8.6
23/06:00am 8.0 5.9 6.6 91 0.6 N 7 9 4 5 1002.1 1002.1 8.6
23/05:30am 7.7 4.8 6.3 91 0.6 N 11 15 6 8 1001.9 1001.9 8.6
23/05:00am 7.3 4.3 5.9 91 0.6 NW 11 15 6 8 1001.9 1001.9 8.6
23/04:43am 7.6 1.4 6.1 90 0.7 NW 28 48 15 26 1001.9 1001.9 8.4
23/04:33am 8.7 3.0 6.7 87 0.9 WNW 26 46 14 25 1002.7 1002.7 7.8
23/04:30am 9.1 4.5 6.7 85 1.1 WNW 20 35 11 19 1002.7 1002.7 7.4
23/04:00am 9.9 5.8 7.8 87 1.0 NNW 19 26 10 14 1001.7 1001.7 6.2
23/03:30am 9.7 4.5 7.3 85 1.1 N 24 37 13 20 1002.0 1002.0 6.2
23/03:00am 10.0 6.9 8.8 92 0.6 N 15 20 8 11 1002.1 1002.1 5.8
23/02:30am 10.0 7.3 9.1 94 0.4 N 13 20 7 11 1002.8 1002.8 5.8
23/02:00am 9.7 7.3 8.6 93 0.5 N 11 15 6 8 1003.0 1003.0 5.8
23/01:30am 9.5 6.7 8.7 95 0.4 N 13 17 7 9 1003.2 1003.2 5.6
23/01:00am 9.9 5.9 9.0 94 0.4 NNW 20 32 11 17 1003.6 1003.6 5.6
23/12:30am 10.3 6.3 9.1 92 0.6 NNW 20 28 11 15 1003.9 1003.9 4.0
23/12:00am 10.1 6.7 9.0 93 0.5 N 17 20 9 11 1004.3 1004.3 3.8
 
Date/Time
EST
Temp
°C
App
Temp
°C
Dew
Point
°C
Rel
Hum
%
Delta-T
°C
Wind Press
QNH
hPa
Press
MSL
hPa
Rain since
9am
mm
Dir  Spd
km/h
Gust
km/h
Spd
kts
Gust
kts
22/11:30pm 9.9 6.8 8.8 93 0.5 NNW 15 19 8 10 1004.5 1004.5 3.8
22/11:00pm 9.8 5.9 8.6 92 0.6 NNW 19 24 10 13 1004.7 1004.7 3.8
22/10:30pm 9.7 5.6 8.6 93 0.5 NW 20 28 11 15 1005.0 1005.0 3.4
22/10:00pm 9.5 6.0 8.6 94 0.4 NW 17 20 9 11 1005.2 1005.2 3.0
22/09:30pm 9.7 5.2 8.5 92 0.6 WNW 22 33 12 18 1005.3 1005.3 2.6
22/09:00pm 9.6 6.5 8.7 94 0.4 NW 15 19 8 10 1005.2 1005.2 2.2
22/08:30pm 9.7 3.2 8.3 91 0.7 WNW 32 43 17 23 1005.0 1005.0 1.8
22/08:19pm 10.1 1.4 8.5 90 0.8 W 44 69 24 37 1004.6 1004.6 1.6
22/08:12pm 10.7 2.0 8.5 86 1.1 NNW 44 72 24 39 1003.8 1003.8 1.4
22/08:10pm 11.2 3.0 8.4 83 1.4 N 41 72 22 39 1003.5 1003.5 1.4
22/08:01pm 13.7 5.4 9.2 74 2.3 N 43 61 23 33 1002.6 1002.6 0.0
22/08:00pm 13.8 5.2 9.0 73 2.4 N 44 61 24 33 1002.6 1002.6 0.0
22/07:31pm 13.6 6.5 9.5 76 2.1 N 37 56 20 30 1002.9 1002.9 0.0
22/07:30pm 13.7 6.2 9.4 75 2.2 N 39 56 21 30 1002.9 1002.9 0.0
22/07:08pm 13.7 6.4 8.7 72 2.5 N 37 61 20 33 1002.8 1002.8 0.0
22/07:00pm 13.5 6.4 9.4 76 2.1 N 37 52 20 28 1003.0 1003.0 0.0
22/06:33pm 13.6 5.2 8.9 73 2.4 N 43 63 23 34 1003.0 1003.0 0.0
22/06:30pm 13.5 5.9 9.0 74 2.3 N 39 56 21 30 1003.2 1003.2 0.0
22/06:00pm 13.3 6.5 9.2 76 2.1 N 35 54 19 29 1003.4 1003.4 0.0
22/05:40pm 13.3 6.5 9.4 77 2.0 N 35 54 19 29 1003.3 1003.3 0.0
22/05:30pm 13.3 6.2 9.4 77 2.0 N 37 50 20 27 1003.3 1003.3 0.0
22/05:00pm 13.1 6.7 9.4 78 1.9 N 33 48 18 26 1003.5 1003.5 0.0
22/04:41pm 13.1 6.9 9.5 79 1.8 N 32 52 17 28 1003.8 1003.8 0.0
22/04:30pm 13.1 6.9 9.4 78 1.9 N 32 46 17 25 1004.0 1004.0 0.0
22/04:27pm 13.1 6.7 9.4 78 1.9 N 33 52 18 28 1004.0 1004.0 0.0
22/04:00pm 13.3 7.1 9.4 77 2.0 N 32 43 17 23 1004.2 1004.2 0.0
22/03:30pm 13.2 6.5 9.5 78 1.9 N 35 48 19 26 1004.4 1004.4 0.0
22/03:00pm 13.5 7.2 9.6 77 2.0 N 33 44 18 24 1004.6 1004.6 0.0
22/02:30pm 13.7 7.4 9.7 77 2.1 N 33 46 18 25 1004.7 1004.7 0.0
22/02:00pm 13.6 7.1 9.1 74 2.3 N 33 50 18 27 1004.8 1004.8 0.0
22/01:44pm 14.3 8.0 8.9 70 2.7 N 32 50 17 27 1004.8 1004.8 0.0
22/01:30pm 14.3 6.7 8.9 70 2.7 N 39 54 21 29 1005.1 1005.1 0.0
22/01:00pm 14.5 7.2 8.9 69 2.9 NNW 37 54 20 29 1005.5 1005.5 0.0
22/12:42pm 14.7 8.3 9.3 70 2.8 N 33 52 18 28 1005.8 1005.8 0.0
22/12:30pm 14.5 8.0 8.9 69 2.8 N 33 50 18 27 1006.1 1006.1 0.0
22/12:00pm 14.8 8.0 9.4 70 2.8 N 35 54 19 29 1006.7 1006.7 0.0
22/11:35am 14.5 8.2 9.1 70 2.8 N 32 56 17 30 1006.9 1006.9 0.0
22/11:30am 14.6 8.9 9.8 73 2.5 N 30 43 16 23 1007.1 1007.1 0.0
22/11:00am 14.4 9.4 9.4 72 2.6 N 26 37 14 20 1007.6 1007.6 0.0
22/10:30am 14.1 8.6 9.3 73 2.5 N 28 39 15 21 1008.0 1008.0 0.0
22/10:00am 13.7 9.1 9.6 76 2.1 N 24 35 13 19 1008.2 1008.2 0.0
22/09:30am 13.3 8.6 9.4 77 2.0 N 24 37 13 20 1008.2 1008.2 0.0
22/09:00am 12.8 8.1 9.3 79 1.8 N 24 33 13 18 1008.4 1008.4 2.2
22/08:30am 12.3 7.5 8.8 79 1.7 N 24 37 13 20 1008.5 1008.5 2.2
22/08:00am 12.2 8.4 8.9 80 1.7 N 19 24 10 13 1008.8 1008.8 2.2
22/07:30am 12.3 7.5 8.8 79 1.7 NNW 24 32 13 17 1008.7 1008.7 2.2
22/07:00am 12.2 7.4 9.0 81 1.6 NNW 24 35 13 19 1008.7 1008.7 2.2
22/06:30am 12.2 6.5 8.5 78 1.8 NNW 28 37 15 20 1008.5 1008.5 2.2
22/06:00am 11.9 7.4 8.7 81 1.6 N 22 32 12 17 1008.4 1008.4 2.2
22/05:30am 12.1 6.5 8.8 80 1.6 N 28 39 15 21 1008.4 1008.4 2.2
22/05:00am 12.0 7.6 9.0 82 1.5 NNW 22 30 12 16 1008.8 1008.8 2.2
22/04:30am 12.1 7.7 8.8 80 1.6 NNW 22 37 12 20 1008.7 1008.7 2.2
22/04:00am 11.9 7.1 8.9 82 1.5 NNW 24 33 13 18 1008.8 1008.8 2.2
22/03:30am 11.7 7.3 9.1 84 1.3 NNW 22 30 12 16 1009.0 1009.0 2.2
22/03:00am 11.2 7.2 8.9 86 1.1 NNW 20 26 11 14 1009.1 1009.1 2.2
22/02:30am 10.9 6.8 8.5 85 1.2 NNW 20 26 11 14 1009.2 1009.2 2.2
22/02:00am 10.9 6.8 8.7 86 1.1 NNW 20 32 11 17 1009.1 1009.1 2.2
22/01:30am 10.1 6.9 8.4 89 0.8 NNW 15 20 8 11 1009.1 1009.1 2.2
22/01:00am 10.7 6.8 8.6 87 1.0 NNW 19 24 10 13 1009.2 1009.2 2.2
22/12:30am 10.7 6.8 8.6 87 1.0 NNW 19 24 10 13 1009.4 1009.4 2.2
22/12:00am 10.7 7.2 8.8 88 0.9 NNW 17 22 9 12 1009.7 1009.7 2.2
 
Date/Time
EST
Temp
°C
App
Temp
°C
Dew
Point
°C
Rel
Hum
%
Delta-T
°C
Wind Press
QNH
hPa
Press
MSL
hPa
Rain since
9am
mm
Dir  Spd
km/h
Gust
km/h
Spd
kts
Gust
kts
21/11:30pm 10.6 6.5 8.5 87 1.0 NNW 20 30 11 16 1009.9 1009.9 2.2
21/11:00pm 10.1 6.5 8.2 88 0.9 NNW 17 20 9 11 1010.0 1010.0 2.2
21/10:30pm 10.0 6.0 8.1 88 0.9 NNW 19 24 10 13 1010.0 1010.0 2.2
21/10:00pm 9.8 7.0 8.4 91 0.7 NNW 13 19 7 10 1009.9 1009.9 2.2
21/09:30pm 9.8 6.9 8.1 89 0.8 NW 13 15 7 8 1009.8 1009.8 2.2
21/09:00pm 10.3 6.4 8.7 90 0.8 NW 19 22 10 12 1009.9 1009.9 2.2
21/08:30pm 9.8 6.7 8.7 93 0.5 NNW 15 19 8 10 1009.9 1009.9 2.2
21/08:00pm 9.4 6.7 8.9 97 0.2 N 13 20 7 11 1009.8 1009.8 2.2
21/07:30pm 7.8 5.8 7.1 95 0.3 N 7 9 4 5 1009.8 1009.8 2.2
21/07:00pm 7.9 5.5 6.8 93 0.5 NNW 9 11 5 6 1009.5 1009.5 2.2
21/06:30pm 9.0 5.2 7.6 91 0.7 NW 17 24 9 13 1009.2 1009.2 2.2
21/06:00pm 9.7 4.7 8.0 89 0.8 NW 24 35 13 19 1009.0 1009.0 1.8
21/05:30pm 8.9 5.6 6.3 84 1.2 WNW 13 15 7 8 1008.6 1008.6 1.4
21/05:00pm 9.8 5.9 6.9 82 1.4 NW 17 20 9 11 1008.4 1008.4 1.4
21/04:30pm 10.8 6.2 6.6 75 2.0 WNW 20 28 11 15 1008.1 1008.1 1.4
21/04:00pm 10.9 7.3 6.6 75 2.0 WNW 15 20 8 11 1007.7 1007.7 1.4
21/03:30pm 10.8 5.3 6.0 72 2.2 W 24 35 13 19 1007.4 1007.4 1.4
21/03:00pm 12.2 5.7 6.7 69 2.6 WNW 30 41 16 22 1006.9 1006.9 1.4
21/02:30pm 11.6 7.4 8.1 79 1.7 WNW 20 26 11 14 1006.6 1006.6 1.4
21/02:00pm 10.3 4.9 8.1 86 1.1 NW 26 35 14 19 1006.6 1006.6 1.4
21/01:33pm 10.4 4.5 7.3 81 1.5 WNW 28 52 15 28 1006.5 1006.5 1.2
21/01:30pm 11.3 6.1 7.2 76 2.0 WNW 24 39 13 21 1006.4 1006.4 0.8
21/01:00pm 11.4 5.7 6.7 73 2.2 W 26 37 14 20 1006.2 1006.2 0.8
21/12:36pm 11.2 4.4 6.9 75 2.0 WNW 32 59 17 32 1006.2 1006.2 0.8
21/12:30pm 11.7 6.0 8.4 80 1.6 WNW 28 39 15 21 1006.1 1006.1 0.8
21/12:11pm 10.9 4.1 6.8 76 1.9 WNW 32 54 17 29 1005.9 1005.9 0.8
21/12:00pm 12.2 6.1 8.3 77 1.9 WNW 30 39 16 21 1005.8 1005.8 0.6
21/11:33am 11.0 4.6 7.1 77 1.9 WNW 30 50 16 27 1006.2 1006.2 0.6
21/11:30am 12.3 6.5 7.8 74 2.2 WNW 28 39 15 21 1005.9 1005.9 0.4
21/11:00am 11.1 5.0 8.1 82 1.5 WNW 30 46 16 25 1005.9 1005.9 0.4
21/10:30am 11.7 6.2 9.3 85 1.2 WNW 28 37 15 20 1005.6 1005.6 0.4
21/10:00am 11.7 5.0 8.2 79 1.7 WNW 33 44 18 24 1005.3 1005.3 0.0
21/09:33am 12.2 5.0 7.5 73 2.3 W 35 56 19 30 1004.4 1004.4 0.0
21/09:30am 12.1 5.3 7.8 75 2.1 WNW 33 46 18 25 1004.4 1004.4 0.0
21/09:00am 11.4 4.9 8.1 80 1.6 WNW 32 43 17 23 1003.9 1003.9 1.4
21/08:45am 11.2 4.5 8.1 81 1.5 WNW 33 52 18 28 1003.7 1003.7 1.4
21/08:30am 11.5 4.1 8.2 80 1.6 WNW 37 54 20 29 1003.4 1003.4 1.4
21/08:00am 11.3 6.3 9.6 89 0.9 NW 26 41 14 22 1002.8 1002.8 1.4
21/07:34am 11.5 5.0 8.9 84 1.3 NW 33 57 18 31 1002.8 1002.8 0.8
21/07:30am 12.2 5.6 8.7 79 1.7 NW 33 44 18 24 1002.7 1002.7 0.0
21/07:29am 12.3 5.7 8.6 78 1.8 NW 33 44 18 24 1002.5 1002.5 0.0
21/07:00am 12.9 5.5 8.2 73 2.3 NNW 37 56 20 30 1001.9 1001.9 0.0
21/06:32am 12.7 5.4 8.8 77 2.0 NNW 37 56 20 30 1001.9 1001.9 0.0
21/06:30am 12.8 5.1 8.7 76 2.0 NNW 39 56 21 30 1001.9 1001.9 0.0
21/06:00am 13.3 6.2 8.2 71 2.5 N 35 52 19 28 1001.8 1001.8 0.0
21/05:30am 13.3 6.3 8.6 73 2.4 N 35 56 19 30 1001.9 1001.9 0.0
21/05:17am 13.0 7.1 8.9 76 2.1 N 30 52 16 28 1002.2 1002.2 0.0
21/05:00am 13.0 7.1 8.9 76 2.1 N 30 43 16 23 1002.2 1002.2 0.0
21/04:30am 13.2 7.3 8.9 75 2.2 N 30 44 16 24 1002.9 1002.9 0.0
21/04:02am 12.9 7.4 9.0 77 2.0 NNE 28 46 15 25 1003.3 1003.3 0.0
21/04:00am 12.9 7.4 9.2 78 1.9 NNE 28 41 15 22 1003.3 1003.3 0.0
21/03:30am 12.8 7.8 9.6 81 1.6 NNE 26 39 14 21 1004.0 1004.0 0.0
21/03:00am 12.7 7.3 9.5 81 1.6 NNE 28 41 15 22 1004.6 1004.6 0.0
21/02:30am 12.4 7.8 9.6 83 1.4 NNE 24 32 13 17 1005.6 1005.6 0.0
21/02:00am 12.2 6.8 9.4 83 1.4 NNE 28 39 15 21 1006.0 1006.0 0.0
21/01:30am 12.1 7.0 9.3 83 1.4 NNE 26 39 14 21 1006.2 1006.2 0.0
21/01:00am 12.2 7.5 9.4 83 1.4 NNE 24 35 13 19 1007.0 1007.0 0.0
21/12:30am 12.0 6.6 9.4 84 1.3 NNE 28 37 15 20 1007.5 1007.5 0.0
21/12:00am 12.3 7.3 9.5 83 1.4 NNE 26 35 14 19 1008.1 1008.1 0.0

Other formats

Comma delimited format used in spreadsheet applications
http://www.bom.gov.au/fwo/IDT60801/IDT60801.94953.axf

JavaScript Object Notation format (JSON) in row-major order
http://www.bom.gov.au/fwo/IDT60801/IDT60801.94953.json

Data quality

Most of these data are generated automatically and are frequently updated. Quality checks on data are not normally performed. It is possible for incorrect values to appear. Refer to information at About Latest Weather Observations and please check the disclaimer before using these data.